sensor_id;sensor_type;location;lat;lon;timestamp;temperature;humidity
2042;DHT22;1026;51.460;7.252;2023-01-09T00:01:50;8.80;99.00
2042;DHT22;1026;51.460;7.252;2023-01-09T00:04:22;8.80;99.10
2042;DHT22;1026;51.460;7.252;2023-01-09T00:06:48;8.80;99.10
2042;DHT22;1026;51.460;7.252;2023-01-09T00:09:20;8.80;99.10
2042;DHT22;1026;51.460;7.252;2023-01-09T00:11:46;8.80;99.10
2042;DHT22;1026;51.460;7.252;2023-01-09T00:14:13;8.70;99.10
2042;DHT22;1026;51.460;7.252;2023-01-09T00:16:39;8.80;99.10
2042;DHT22;1026;51.460;7.252;2023-01-09T00:19:05;8.70;99.10
2042;DHT22;1026;51.460;7.252;2023-01-09T00:21:30;8.80;99.10
2042;DHT22;1026;51.460;7.252;2023-01-09T00:23:56;8.70;99.10
2042;DHT22;1026;51.460;7.252;2023-01-09T00:26:22;8.80;99.20
2042;DHT22;1026;51.460;7.252;2023-01-09T00:29:09;8.80;99.20
2042;DHT22;1026;51.460;7.252;2023-01-09T00:31:35;8.80;99.20
2042;DHT22;1026;51.460;7.252;2023-01-09T00:34:04;8.80;99.20
2042;DHT22;1026;51.460;7.252;2023-01-09T00:36:30;8.80;99.20
2042;DHT22;1026;51.460;7.252;2023-01-09T00:38:56;8.80;99.20
2042;DHT22;1026;51.460;7.252;2023-01-09T00:41:32;8.80;99.20
2042;DHT22;1026;51.460;7.252;2023-01-09T00:44:21;8.80;99.20
2042;DHT22;1026;51.460;7.252;2023-01-09T00:46:51;8.80;99.20
2042;DHT22;1026;51.460;7.252;2023-01-09T00:49:18;8.80;99.20
2042;DHT22;1026;51.460;7.252;2023-01-09T00:51:45;8.80;99.20
2042;DHT22;1026;51.460;7.252;2023-01-09T00:54:13;8.70;99.10
2042;DHT22;1026;51.460;7.252;2023-01-09T00:56:40;8.80;99.10
2042;DHT22;1026;51.460;7.252;2023-01-09T00:59:11;8.80;99.10
2042;DHT22;1026;51.460;7.252;2023-01-09T01:01:37;8.80;99.20
2042;DHT22;1026;51.460;7.252;2023-01-09T01:04:03;8.80;99.10
2042;DHT22;1026;51.460;7.252;2023-01-09T01:06:48;8.80;99.20
2042;DHT22;1026;51.460;7.252;2023-01-09T01:09:29;8.80;99.20
2042;DHT22;1026;51.460;7.252;2023-01-09T01:11:55;8.70;99.10
2042;DHT22;1026;51.460;7.252;2023-01-09T01:14:21;8.80;99.20
2042;DHT22;1026;51.460;7.252;2023-01-09T01:16:47;8.80;99.20
2042;DHT22;1026;51.460;7.252;2023-01-09T01:19:13;8.80;99.20
2042;DHT22;1026;51.460;7.252;2023-01-09T01:21:51;8.80;99.20
2042;DHT22;1026;51.460;7.252;2023-01-09T01:24:17;8.80;99.20
2042;DHT22;1026;51.460;7.252;2023-01-09T01:26:45;8.60;99.10
2042;DHT22;1026;51.460;7.252;2023-01-09T01:29:11;8.70;99.20
2042;DHT22;1026;51.460;7.252;2023-01-09T01:31:36;8.80;99.20
2042;DHT22;1026;51.460;7.252;2023-01-09T01:34:02;8.60;99.10
2042;DHT22;1026;51.460;7.252;2023-01-09T01:36:28;8.80;99.20
2042;DHT22;1026;51.460;7.252;2023-01-09T01:38:54;8.80;99.20
2042;DHT22;1026;51.460;7.252;2023-01-09T01:41:20;8.80;99.20
2042;DHT22;1026;51.460;7.252;2023-01-09T01:43:58;8.80;99.20
2042;DHT22;1026;51.460;7.252;2023-01-09T01:46:25;8.70;99.20
2042;DHT22;1026;51.460;7.252;2023-01-09T01:48:55;8.80;99.20
2042;DHT22;1026;51.460;7.252;2023-01-09T01:51:24;8.60;99.20
2042;DHT22;1026;51.460;7.252;2023-01-09T01:53:52;8.60;99.20
2042;DHT22;1026;51.460;7.252;2023-01-09T01:56:41;8.80;99.20
2042;DHT22;1026;51.460;7.252;2023-01-09T01:59:14;8.80;99.20
2042;DHT22;1026;51.460;7.252;2023-01-09T02:01:59;8.80;99.30
2042;DHT22;1026;51.460;7.252;2023-01-09T02:04:26;8.80;99.30
2042;DHT22;1026;51.460;7.252;2023-01-09T02:06:54;8.80;99.30
2042;DHT22;1026;51.460;7.252;2023-01-09T02:09:21;8.80;99.30
2042;DHT22;1026;51.460;7.252;2023-01-09T02:14:54;8.60;99.20
2042;DHT22;1026;51.460;7.252;2023-01-09T02:20:25;8.70;99.20
2042;DHT22;1026;51.460;7.252;2023-01-09T02:23:27;8.70;99.20
2042;DHT22;1026;51.460;7.252;2023-01-09T02:35:02;8.80;99.20
2042;DHT22;1026;51.460;7.252;2023-01-09T02:37:42;8.70;99.20
2042;DHT22;1026;51.460;7.252;2023-01-09T02:40:15;8.70;99.20
2042;DHT22;1026;51.460;7.252;2023-01-09T02:42:44;8.70;99.20
2042;DHT22;1026;51.460;7.252;2023-01-09T02:45:10;8.70;99.20
2042;DHT22;1026;51.460;7.252;2023-01-09T02:47:40;8.70;99.20
2042;DHT22;1026;51.460;7.252;2023-01-09T02:50:10;8.80;99.20
2042;DHT22;1026;51.460;7.252;2023-01-09T02:55:51;8.70;99.20
2042;DHT22;1026;51.460;7.252;2023-01-09T03:07:03;8.60;99.10
2042;DHT22;1026;51.460;7.252;2023-01-09T03:09:33;8.70;99.10
2042;DHT22;1026;51.460;7.252;2023-01-09T03:12:15;8.70;99.10
2042;DHT22;1026;51.460;7.252;2023-01-09T03:14:46;8.70;99.10
2042;DHT22;1026;51.460;7.252;2023-01-09T03:17:15;8.70;99.10
2042;DHT22;1026;51.460;7.252;2023-01-09T03:19:44;8.70;99.20
2042;DHT22;1026;51.460;7.252;2023-01-09T03:22:10;8.70;99.10
2042;DHT22;1026;51.460;7.252;2023-01-09T03:24:36;8.70;99.10
2042;DHT22;1026;51.460;7.252;2023-01-09T03:27:06;8.70;99.20
2042;DHT22;1026;51.460;7.252;2023-01-09T03:29:32;8.70;99.20
2042;DHT22;1026;51.460;7.252;2023-01-09T03:31:57;8.70;99.10
2042;DHT22;1026;51.460;7.252;2023-01-09T03:34:26;8.70;99.10
2042;DHT22;1026;51.460;7.252;2023-01-09T03:36:51;8.70;99.20
2042;DHT22;1026;51.460;7.252;2023-01-09T03:39:17;8.50;99.10
2042;DHT22;1026;51.460;7.252;2023-01-09T03:41:43;8.70;99.10
2042;DHT22;1026;51.460;7.252;2023-01-09T03:44:08;8.70;99.10
2042;DHT22;1026;51.460;7.252;2023-01-09T03:46:34;8.70;99.10
2042;DHT22;1026;51.460;7.252;2023-01-09T03:49:00;8.60;99.10
2042;DHT22;1026;51.460;7.252;2023-01-09T03:51:25;8.70;99.20
2042;DHT22;1026;51.460;7.252;2023-01-09T03:53:51;8.70;99.20
2042;DHT22;1026;51.460;7.252;2023-01-09T03:56:17;8.60;99.10
2042;DHT22;1026;51.460;7.252;2023-01-09T03:58:42;8.60;99.10
2042;DHT22;1026;51.460;7.252;2023-01-09T04:01:08;8.70;99.20
2042;DHT22;1026;51.460;7.252;2023-01-09T04:03:37;8.70;99.20
2042;DHT22;1026;51.460;7.252;2023-01-09T04:06:03;8.60;99.10
2042;DHT22;1026;51.460;7.252;2023-01-09T04:08:29;8.70;99.20
2042;DHT22;1026;51.460;7.252;2023-01-09T04:10:55;8.70;99.10
2042;DHT22;1026;51.460;7.252;2023-01-09T04:13:21;8.50;99.00
2042;DHT22;1026;51.460;7.252;2023-01-09T04:15:47;8.60;99.10
2042;DHT22;1026;51.460;7.252;2023-01-09T04:18:13;8.60;99.00
2042;DHT22;1026;51.460;7.252;2023-01-09T04:20:39;8.50;99.00
2042;DHT22;1026;51.460;7.252;2023-01-09T04:23:05;8.50;99.00
2042;DHT22;1026;51.460;7.252;2023-01-09T04:25:31;8.60;99.10
2042;DHT22;1026;51.460;7.252;2023-01-09T04:27:57;8.60;99.00
2042;DHT22;1026;51.460;7.252;2023-01-09T04:30:23;8.60;99.00
2042;DHT22;1026;51.460;7.252;2023-01-09T04:32:48;8.60;99.00
2042;DHT22;1026;51.460;7.252;2023-01-09T04:35:15;8.60;99.00
2042;DHT22;1026;51.460;7.252;2023-01-09T04:37:43;8.60;99.00
2042;DHT22;1026;51.460;7.252;2023-01-09T04:40:15;8.50;99.00
2042;DHT22;1026;51.460;7.252;2023-01-09T04:42:41;8.60;99.00
2042;DHT22;1026;51.460;7.252;2023-01-09T04:45:09;8.50;98.90
2042;DHT22;1026;51.460;7.252;2023-01-09T04:47:35;8.60;99.00
2042;DHT22;1026;51.460;7.252;2023-01-09T04:50:01;8.60;98.90
2042;DHT22;1026;51.460;7.252;2023-01-09T04:52:27;8.50;98.80
2042;DHT22;1026;51.460;7.252;2023-01-09T04:54:53;8.60;98.90
2042;DHT22;1026;51.460;7.252;2023-01-09T04:57:19;8.60;98.90
2042;DHT22;1026;51.460;7.252;2023-01-09T04:59:45;8.60;98.90
2042;DHT22;1026;51.460;7.252;2023-01-09T05:02:10;8.40;98.80
2042;DHT22;1026;51.460;7.252;2023-01-09T05:04:36;8.60;98.80
2042;DHT22;1026;51.460;7.252;2023-01-09T05:07:02;8.60;98.80
2042;DHT22;1026;51.460;7.252;2023-01-09T05:09:28;8.60;98.80
2042;DHT22;1026;51.460;7.252;2023-01-09T05:11:54;8.50;98.70
2042;DHT22;1026;51.460;7.252;2023-01-09T05:14:19;8.60;98.70
2042;DHT22;1026;51.460;7.252;2023-01-09T05:16:45;8.60;98.70
2042;DHT22;1026;51.460;7.252;2023-01-09T05:19:11;8.60;98.70
2042;DHT22;1026;51.460;7.252;2023-01-09T05:21:54;8.50;98.70
2042;DHT22;1026;51.460;7.252;2023-01-09T05:24:19;8.50;98.70
2042;DHT22;1026;51.460;7.252;2023-01-09T05:26:46;8.40;98.60
2042;DHT22;1026;51.460;7.252;2023-01-09T05:29:20;8.50;98.70
2042;DHT22;1026;51.460;7.252;2023-01-09T05:31:48;8.50;98.70
2042;DHT22;1026;51.460;7.252;2023-01-09T05:34:14;8.50;98.70
2042;DHT22;1026;51.460;7.252;2023-01-09T05:36:53;8.50;98.70
2042;DHT22;1026;51.460;7.252;2023-01-09T05:39:19;8.50;98.80
2042;DHT22;1026;51.460;7.252;2023-01-09T05:41:45;8.50;98.70
2042;DHT22;1026;51.460;7.252;2023-01-09T05:44:10;8.50;98.80
2042;DHT22;1026;51.460;7.252;2023-01-09T05:46:36;8.50;98.80
2042;DHT22;1026;51.460;7.252;2023-01-09T05:49:02;8.50;98.80
2042;DHT22;1026;51.460;7.252;2023-01-09T05:51:27;8.50;98.80
2042;DHT22;1026;51.460;7.252;2023-01-09T05:53:56;8.50;98.80
2042;DHT22;1026;51.460;7.252;2023-01-09T05:56:22;8.50;98.80
2042;DHT22;1026;51.460;7.252;2023-01-09T05:58:48;8.50;98.80
2042;DHT22;1026;51.460;7.252;2023-01-09T06:01:13;8.50;98.80
2042;DHT22;1026;51.460;7.252;2023-01-09T06:03:39;8.50;98.80
2042;DHT22;1026;51.460;7.252;2023-01-09T06:06:05;8.40;98.80
2042;DHT22;1026;51.460;7.252;2023-01-09T06:08:31;8.50;98.80
2042;DHT22;1026;51.460;7.252;2023-01-09T06:10:56;8.50;98.80
2042;DHT22;1026;51.460;7.252;2023-01-09T06:13:22;8.50;98.80
2042;DHT22;1026;51.460;7.252;2023-01-09T06:15:48;8.50;98.80
2042;DHT22;1026;51.460;7.252;2023-01-09T06:18:14;8.40;98.80
2042;DHT22;1026;51.460;7.252;2023-01-09T06:20:39;8.40;98.80
2042;DHT22;1026;51.460;7.252;2023-01-09T06:23:05;8.40;98.70
2042;DHT22;1026;51.460;7.252;2023-01-09T06:25:31;8.40;98.70
2042;DHT22;1026;51.460;7.252;2023-01-09T06:28:03;8.40;98.70
2042;DHT22;1026;51.460;7.252;2023-01-09T06:30:36;8.40;98.70
2042;DHT22;1026;51.460;7.252;2023-01-09T06:33:01;8.40;98.70
2042;DHT22;1026;51.460;7.252;2023-01-09T06:35:27;8.40;98.70
2042;DHT22;1026;51.460;7.252;2023-01-09T06:37:53;8.40;98.70
2042;DHT22;1026;51.460;7.252;2023-01-09T06:40:18;8.40;98.70
2042;DHT22;1026;51.460;7.252;2023-01-09T06:42:46;8.40;98.70
2042;DHT22;1026;51.460;7.252;2023-01-09T06:45:12;8.30;98.70
2042;DHT22;1026;51.460;7.252;2023-01-09T06:47:38;8.40;98.70
2042;DHT22;1026;51.460;7.252;2023-01-09T06:50:05;8.40;98.70
2042;DHT22;1026;51.460;7.252;2023-01-09T06:52:31;8.30;98.60
2042;DHT22;1026;51.460;7.252;2023-01-09T06:54:56;8.40;98.70
2042;DHT22;1026;51.460;7.252;2023-01-09T06:57:22;8.40;98.70
2042;DHT22;1026;51.460;7.252;2023-01-09T06:59:48;8.40;98.70
2042;DHT22;1026;51.460;7.252;2023-01-09T07:02:21;8.40;98.70
2042;DHT22;1026;51.460;7.252;2023-01-09T07:04:47;8.40;98.70
2042;DHT22;1026;51.460;7.252;2023-01-09T07:07:12;8.30;98.60
2042;DHT22;1026;51.460;7.252;2023-01-09T07:09:38;8.40;98.70
2042;DHT22;1026;51.460;7.252;2023-01-09T07:12:04;8.40;98.70
2042;DHT22;1026;51.460;7.252;2023-01-09T07:14:30;8.40;99.00
2042;DHT22;1026;51.460;7.252;2023-01-09T07:16:56;8.30;98.60
2042;DHT22;1026;51.460;7.252;2023-01-09T07:19:22;8.40;98.60
2042;DHT22;1026;51.460;7.252;2023-01-09T07:21:50;8.40;98.70
2042;DHT22;1026;51.460;7.252;2023-01-09T07:24:16;8.40;98.70
2042;DHT22;1026;51.460;7.252;2023-01-09T07:26:41;8.30;98.60
2042;DHT22;1026;51.460;7.252;2023-01-09T07:29:07;8.40;98.70
2042;DHT22;1026;51.460;7.252;2023-01-09T07:31:33;8.40;98.70
2042;DHT22;1026;51.460;7.252;2023-01-09T07:33:58;8.40;98.70
2042;DHT22;1026;51.460;7.252;2023-01-09T07:36:24;8.30;98.50
2042;DHT22;1026;51.460;7.252;2023-01-09T07:38:50;8.40;98.70
2042;DHT22;1026;51.460;7.252;2023-01-09T07:41:15;8.40;98.60
2042;DHT22;1026;51.460;7.252;2023-01-09T07:43:41;8.40;98.70
2042;DHT22;1026;51.460;7.252;2023-01-09T07:46:06;8.20;98.60
2042;DHT22;1026;51.460;7.252;2023-01-09T07:48:32;8.40;98.70
2042;DHT22;1026;51.460;7.252;2023-01-09T07:50:58;8.40;98.90
2042;DHT22;1026;51.460;7.252;2023-01-09T07:53:24;8.40;98.60
2042;DHT22;1026;51.460;7.252;2023-01-09T07:55:49;8.40;98.60
2042;DHT22;1026;51.460;7.252;2023-01-09T07:58:15;8.30;98.60
2042;DHT22;1026;51.460;7.252;2023-01-09T08:00:41;8.30;98.60
2042;DHT22;1026;51.460;7.252;2023-01-09T08:03:06;8.40;98.60
2042;DHT22;1026;51.460;7.252;2023-01-09T08:05:32;8.30;98.60
2042;DHT22;1026;51.460;7.252;2023-01-09T08:07:58;8.30;98.60
2042;DHT22;1026;51.460;7.252;2023-01-09T08:10:24;8.20;98.50
2042;DHT22;1026;51.460;7.252;2023-01-09T08:12:50;8.40;98.60
2042;DHT22;1026;51.460;7.252;2023-01-09T08:15:15;8.40;98.60
2042;DHT22;1026;51.460;7.252;2023-01-09T08:17:42;8.30;98.50
2042;DHT22;1026;51.460;7.252;2023-01-09T08:20:10;8.30;98.40
2042;DHT22;1026;51.460;7.252;2023-01-09T08:22:37;8.30;98.40
2042;DHT22;1026;51.460;7.252;2023-01-09T08:25:03;8.30;98.40
2042;DHT22;1026;51.460;7.252;2023-01-09T08:27:32;8.30;98.40
2042;DHT22;1026;51.460;7.252;2023-01-09T08:29:58;8.40;98.40
2042;DHT22;1026;51.460;7.252;2023-01-09T08:32:24;8.30;98.40
2042;DHT22;1026;51.460;7.252;2023-01-09T08:34:50;8.40;98.50
2042;DHT22;1026;51.460;7.252;2023-01-09T08:37:16;8.30;98.50
2042;DHT22;1026;51.460;7.252;2023-01-09T08:39:42;8.20;98.50
2042;DHT22;1026;51.460;7.252;2023-01-09T08:42:07;8.20;98.50
2042;DHT22;1026;51.460;7.252;2023-01-09T08:44:48;8.20;98.50
2042;DHT22;1026;51.460;7.252;2023-01-09T08:47:34;8.30;98.60
2042;DHT22;1026;51.460;7.252;2023-01-09T08:50:01;8.20;98.50
2042;DHT22;1026;51.460;7.252;2023-01-09T08:52:28;8.30;98.60
2042;DHT22;1026;51.460;7.252;2023-01-09T08:54:55;8.30;98.60
2042;DHT22;1026;51.460;7.252;2023-01-09T08:57:21;8.40;98.60
2042;DHT22;1026;51.460;7.252;2023-01-09T08:59:47;8.30;98.50
2042;DHT22;1026;51.460;7.252;2023-01-09T09:02:12;8.30;98.50
2042;DHT22;1026;51.460;7.252;2023-01-09T09:04:38;8.30;98.50
2042;DHT22;1026;51.460;7.252;2023-01-09T09:07:04;8.20;98.50
2042;DHT22;1026;51.460;7.252;2023-01-09T09:09:29;8.30;98.60
2042;DHT22;1026;51.460;7.252;2023-01-09T09:11:55;8.30;98.60
2042;DHT22;1026;51.460;7.252;2023-01-09T09:14:21;8.30;98.60
2042;DHT22;1026;51.460;7.252;2023-01-09T09:17:02;8.30;98.60
2042;DHT22;1026;51.460;7.252;2023-01-09T09:19:27;8.30;98.60
2042;DHT22;1026;51.460;7.252;2023-01-09T09:22:13;8.30;98.60
2042;DHT22;1026;51.460;7.252;2023-01-09T09:27:37;8.30;98.70
2042;DHT22;1026;51.460;7.252;2023-01-09T09:30:03;8.20;98.60
2042;DHT22;1026;51.460;7.252;2023-01-09T09:32:30;8.20;98.60
2042;DHT22;1026;51.460;7.252;2023-01-09T09:34:56;8.20;98.70
2042;DHT22;1026;51.460;7.252;2023-01-09T09:37:23;8.30;98.70
2042;DHT22;1026;51.460;7.252;2023-01-09T09:39:48;8.30;98.70
2042;DHT22;1026;51.460;7.252;2023-01-09T09:42:38;8.30;98.70
2042;DHT22;1026;51.460;7.252;2023-01-09T09:45:33;8.30;98.70
2042;DHT22;1026;51.460;7.252;2023-01-09T09:55:33;8.30;98.80
2042;DHT22;1026;51.460;7.252;2023-01-09T09:58:05;8.30;98.80
2042;DHT22;1026;51.460;7.252;2023-01-09T10:00:32;8.30;98.80
2042;DHT22;1026;51.460;7.252;2023-01-09T10:03:05;8.20;98.70
2042;DHT22;1026;51.460;7.252;2023-01-09T10:05:42;8.30;98.80
2042;DHT22;1026;51.460;7.252;2023-01-09T10:10:59;8.30;98.80
2042;DHT22;1026;51.460;7.252;2023-01-09T10:13:25;8.20;98.70
2042;DHT22;1026;51.460;7.252;2023-01-09T10:22:09;8.30;98.80
2042;DHT22;1026;51.460;7.252;2023-01-09T10:24:47;8.20;98.80
2042;DHT22;1026;51.460;7.252;2023-01-09T10:30:07;8.30;98.90
2042;DHT22;1026;51.460;7.252;2023-01-09T10:32:57;8.30;98.90
2042;DHT22;1026;51.460;7.252;2023-01-09T10:38:23;8.30;98.90
2042;DHT22;1026;51.460;7.252;2023-01-09T10:41:02;8.30;98.90
2042;DHT22;1026;51.460;7.252;2023-01-09T10:43:52;8.30;98.90
2042;DHT22;1026;51.460;7.252;2023-01-09T10:46:34;8.30;98.90
2042;DHT22;1026;51.460;7.252;2023-01-09T10:49:16;8.30;98.90
2042;DHT22;1026;51.460;7.252;2023-01-09T10:52:04;8.30;98.90
2042;DHT22;1026;51.460;7.252;2023-01-09T10:54:41;8.30;98.90
2042;DHT22;1026;51.460;7.252;2023-01-09T10:57:33;8.30;98.90
2042;DHT22;1026;51.460;7.252;2023-01-09T11:00:00;8.30;98.90
2042;DHT22;1026;51.460;7.252;2023-01-09T11:02:30;8.30;98.90
2042;DHT22;1026;51.460;7.252;2023-01-09T11:04:56;8.30;98.90
2042;DHT22;1026;51.460;7.252;2023-01-09T11:07:25;8.30;98.90
2042;DHT22;1026;51.460;7.252;2023-01-09T11:12:23;8.40;98.90
2042;DHT22;1026;51.460;7.252;2023-01-09T11:14:49;8.30;98.90
2042;DHT22;1026;51.460;7.252;2023-01-09T11:17:21;8.30;98.90
2042;DHT22;1026;51.460;7.252;2023-01-09T11:20:06;8.30;98.90
2042;DHT22;1026;51.460;7.252;2023-01-09T11:22:42;8.30;98.90
2042;DHT22;1026;51.460;7.252;2023-01-09T11:25:13;8.20;99.10
2042;DHT22;1026;51.460;7.252;2023-01-09T11:27:38;8.30;98.80
2042;DHT22;1026;51.460;7.252;2023-01-09T11:30:24;8.40;98.90
2042;DHT22;1026;51.460;7.252;2023-01-09T11:32:53;8.40;98.90
2042;DHT22;1026;51.460;7.252;2023-01-09T11:35:53;8.40;98.90
2042;DHT22;1026;51.460;7.252;2023-01-09T11:38:19;8.40;98.90
2042;DHT22;1026;51.460;7.252;2023-01-09T11:45:46;8.40;98.90
2042;DHT22;1026;51.460;7.252;2023-01-09T11:48:30;8.40;98.90
2042;DHT22;1026;51.460;7.252;2023-01-09T11:50:58;8.40;98.90
2042;DHT22;1026;51.460;7.252;2023-01-09T11:53:24;8.40;98.90
2042;DHT22;1026;51.460;7.252;2023-01-09T11:56:07;8.50;98.90
2042;DHT22;1026;51.460;7.252;2023-01-09T11:58:34;8.50;98.90
2042;DHT22;1026;51.460;7.252;2023-01-09T12:10:26;8.40;98.80
2042;DHT22;1026;51.460;7.252;2023-01-09T12:13:10;8.50;98.90
2042;DHT22;1026;51.460;7.252;2023-01-09T12:16:01;8.50;98.90
2042;DHT22;1026;51.460;7.252;2023-01-09T12:18:55;8.50;98.90
2042;DHT22;1026;51.460;7.252;2023-01-09T12:21:31;8.40;98.80
2042;DHT22;1026;51.460;7.252;2023-01-09T12:32:27;8.50;98.90
2042;DHT22;1026;51.460;7.252;2023-01-09T12:40:56;8.50;98.90
2042;DHT22;1026;51.460;7.252;2023-01-09T12:43:40;8.50;98.80
2042;DHT22;1026;51.460;7.252;2023-01-09T12:46:19;8.50;98.80
2042;DHT22;1026;51.460;7.252;2023-01-09T12:51:44;8.50;98.80
2042;DHT22;1026;51.460;7.252;2023-01-09T12:54:32;8.50;98.80
2042;DHT22;1026;51.460;7.252;2023-01-09T12:57:05;8.50;98.80
2042;DHT22;1026;51.460;7.252;2023-01-09T12:59:46;8.50;98.80
2042;DHT22;1026;51.460;7.252;2023-01-09T13:02:31;8.50;98.90
2042;DHT22;1026;51.460;7.252;2023-01-09T13:05:04;8.50;98.80
2042;DHT22;1026;51.460;7.252;2023-01-09T13:07:39;8.50;98.80
2042;DHT22;1026;51.460;7.252;2023-01-09T13:12:57;8.50;98.90
2042;DHT22;1026;51.460;7.252;2023-01-09T13:17:57;8.50;98.90
2042;DHT22;1026;51.460;7.252;2023-01-09T13:20:44;8.50;98.90
2042;DHT22;1026;51.460;7.252;2023-01-09T13:26:04;8.50;98.90
2042;DHT22;1026;51.460;7.252;2023-01-09T13:28:42;8.60;98.90
2042;DHT22;1026;51.460;7.252;2023-01-09T13:33:53;8.60;98.90
2042;DHT22;1026;51.460;7.252;2023-01-09T13:36:27;8.50;98.90
2042;DHT22;1026;51.460;7.252;2023-01-09T13:38:55;8.60;98.90
2042;DHT22;1026;51.460;7.252;2023-01-09T13:41:21;8.40;98.80
2042;DHT22;1026;51.460;7.252;2023-01-09T13:44:05;8.50;98.90
2042;DHT22;1026;51.460;7.252;2023-01-09T13:46:52;8.50;98.90
2042;DHT22;1026;51.460;7.252;2023-01-09T13:52:37;8.50;98.90
2042;DHT22;1026;51.460;7.252;2023-01-09T13:55:24;8.50;98.90
2042;DHT22;1026;51.460;7.252;2023-01-09T14:08:25;8.60;98.90
2042;DHT22;1026;51.460;7.252;2023-01-09T14:10:55;8.50;98.90
2042;DHT22;1026;51.460;7.252;2023-01-09T14:13:26;8.40;98.80
2042;DHT22;1026;51.460;7.252;2023-01-09T14:18:31;8.50;98.80
2042;DHT22;1026;51.460;7.252;2023-01-09T14:21:00;8.60;98.90
2042;DHT22;1026;51.460;7.252;2023-01-09T14:26:02;8.50;98.80
2042;DHT22;1026;51.460;7.252;2023-01-09T14:28:30;8.60;98.90
2042;DHT22;1026;51.460;7.252;2023-01-09T14:31:01;8.60;98.90
2042;DHT22;1026;51.460;7.252;2023-01-09T14:33:29;8.50;98.80
2042;DHT22;1026;51.460;7.252;2023-01-09T14:36:13;8.60;98.90
2042;DHT22;1026;51.460;7.252;2023-01-09T14:38:44;8.50;98.80
2042;DHT22;1026;51.460;7.252;2023-01-09T14:41:23;8.60;98.90
2042;DHT22;1026;51.460;7.252;2023-01-09T14:46:47;8.50;98.80
2042;DHT22;1026;51.460;7.252;2023-01-09T14:52:07;8.60;98.80
2042;DHT22;1026;51.460;7.252;2023-01-09T14:54:38;8.60;98.90
2042;DHT22;1026;51.460;7.252;2023-01-09T14:57:22;8.60;98.90
2042;DHT22;1026;51.460;7.252;2023-01-09T15:00:05;8.60;98.90
2042;DHT22;1026;51.460;7.252;2023-01-09T15:02:39;8.50;98.80
2042;DHT22;1026;51.460;7.252;2023-01-09T15:05:08;8.60;98.80
2042;DHT22;1026;51.460;7.252;2023-01-09T15:07:39;8.50;98.80
2042;DHT22;1026;51.460;7.252;2023-01-09T15:10:17;8.60;98.80
2042;DHT22;1026;51.460;7.252;2023-01-09T15:12:45;8.50;98.80
2042;DHT22;1026;51.460;7.252;2023-01-09T15:15:14;8.60;98.80
2042;DHT22;1026;51.460;7.252;2023-01-09T15:17:40;8.60;98.80
2042;DHT22;1026;51.460;7.252;2023-01-09T15:20:16;8.50;98.80
2042;DHT22;1026;51.460;7.252;2023-01-09T15:22:52;8.50;98.80
2042;DHT22;1026;51.460;7.252;2023-01-09T15:30:54;8.60;98.80
2042;DHT22;1026;51.460;7.252;2023-01-09T15:33:22;8.50;98.70
2042;DHT22;1026;51.460;7.252;2023-01-09T15:35:49;8.50;98.70
2042;DHT22;1026;51.460;7.252;2023-01-09T15:38:20;8.40;98.70
2042;DHT22;1026;51.460;7.252;2023-01-09T15:40:57;8.50;98.80
2042;DHT22;1026;51.460;7.252;2023-01-09T15:43:25;8.40;98.70
2042;DHT22;1026;51.460;7.252;2023-01-09T15:46:16;8.50;98.80
2042;DHT22;1026;51.460;7.252;2023-01-09T15:48:42;8.50;99.00
2042;DHT22;1026;51.460;7.252;2023-01-09T15:51:10;8.60;98.70
2042;DHT22;1026;51.460;7.252;2023-01-09T15:53:40;8.50;98.70
2042;DHT22;1026;51.460;7.252;2023-01-09T15:56:26;8.50;98.80
2042;DHT22;1026;51.460;7.252;2023-01-09T15:59:25;8.40;98.70
2042;DHT22;1026;51.460;7.252;2023-01-09T16:02:01;8.50;98.80
2042;DHT22;1026;51.460;7.252;2023-01-09T16:04:44;8.50;98.80
2042;DHT22;1026;51.460;7.252;2023-01-09T16:07:14;8.50;98.70
2042;DHT22;1026;51.460;7.252;2023-01-09T16:09:43;8.40;98.70
2042;DHT22;1026;51.460;7.252;2023-01-09T16:12:27;8.50;98.70
2042;DHT22;1026;51.460;7.252;2023-01-09T16:14:56;8.50;98.70
2042;DHT22;1026;51.460;7.252;2023-01-09T16:17:23;8.50;98.70
2042;DHT22;1026;51.460;7.252;2023-01-09T16:19:55;8.50;98.70
2042;DHT22;1026;51.460;7.252;2023-01-09T16:22:28;8.50;98.70
2042;DHT22;1026;51.460;7.252;2023-01-09T16:24:58;8.50;98.70
2042;DHT22;1026;51.460;7.252;2023-01-09T16:29:57;8.60;98.70
2042;DHT22;1026;51.460;7.252;2023-01-09T16:32:33;8.60;98.60
2042;DHT22;1026;51.460;7.252;2023-01-09T16:35:03;8.50;98.60
2042;DHT22;1026;51.460;7.252;2023-01-09T16:37:47;8.60;98.60
2042;DHT22;1026;51.460;7.252;2023-01-09T16:42:42;8.50;98.60
2042;DHT22;1026;51.460;7.252;2023-01-09T16:45:33;8.50;98.60
2042;DHT22;1026;51.460;7.252;2023-01-09T16:48:00;8.40;98.60
2042;DHT22;1026;51.460;7.252;2023-01-09T16:50:26;8.50;98.60
2042;DHT22;1026;51.460;7.252;2023-01-09T16:52:52;8.50;98.70
2042;DHT22;1026;51.460;7.252;2023-01-09T16:55:25;8.50;98.70
2042;DHT22;1026;51.460;7.252;2023-01-09T16:57:51;8.50;98.70
2042;DHT22;1026;51.460;7.252;2023-01-09T17:00:23;8.50;98.70
2042;DHT22;1026;51.460;7.252;2023-01-09T17:02:48;8.30;98.60
2042;DHT22;1026;51.460;7.252;2023-01-09T17:05:14;8.50;98.70
2042;DHT22;1026;51.460;7.252;2023-01-09T17:07:46;8.40;98.70
2042;DHT22;1026;51.460;7.252;2023-01-09T17:10:20;8.50;98.70
2042;DHT22;1026;51.460;7.252;2023-01-09T17:12:46;8.50;98.70
2042;DHT22;1026;51.460;7.252;2023-01-09T17:15:12;8.50;98.80
2042;DHT22;1026;51.460;7.252;2023-01-09T17:17:38;8.50;98.70
2042;DHT22;1026;51.460;7.252;2023-01-09T17:20:14;8.50;98.70
2042;DHT22;1026;51.460;7.252;2023-01-09T17:22:40;8.50;98.70
2042;DHT22;1026;51.460;7.252;2023-01-09T17:25:05;8.50;98.80
2042;DHT22;1026;51.460;7.252;2023-01-09T17:27:46;8.30;98.70
2042;DHT22;1026;51.460;7.252;2023-01-09T17:30:27;8.50;98.80
2042;DHT22;1026;51.460;7.252;2023-01-09T17:32:53;8.50;98.80
2042;DHT22;1026;51.460;7.252;2023-01-09T17:35:19;8.50;98.80
2042;DHT22;1026;51.460;7.252;2023-01-09T17:37:44;8.40;98.70
2042;DHT22;1026;51.460;7.252;2023-01-09T17:40:20;8.50;98.70
2042;DHT22;1026;51.460;7.252;2023-01-09T17:42:58;8.50;98.80
2042;DHT22;1026;51.460;7.252;2023-01-09T17:45:23;8.40;98.70
2042;DHT22;1026;51.460;7.252;2023-01-09T17:47:49;8.40;98.80
2042;DHT22;1026;51.460;7.252;2023-01-09T17:50:18;8.40;98.70
2042;DHT22;1026;51.460;7.252;2023-01-09T17:53:16;8.50;98.80
2042;DHT22;1026;51.460;7.252;2023-01-09T17:55:44;8.50;98.80
2042;DHT22;1026;51.460;7.252;2023-01-09T17:58:24;8.40;98.80
2042;DHT22;1026;51.460;7.252;2023-01-09T18:00:50;8.40;98.80
2042;DHT22;1026;51.460;7.252;2023-01-09T18:03:16;8.40;98.80
2042;DHT22;1026;51.460;7.252;2023-01-09T18:05:42;8.40;98.80
2042;DHT22;1026;51.460;7.252;2023-01-09T18:08:11;8.40;98.80
2042;DHT22;1026;51.460;7.252;2023-01-09T18:10:40;8.40;98.80
2042;DHT22;1026;51.460;7.252;2023-01-09T18:13:08;8.40;98.80
2042;DHT22;1026;51.460;7.252;2023-01-09T18:15:35;8.40;98.80
2042;DHT22;1026;51.460;7.252;2023-01-09T18:18:01;8.40;98.80
2042;DHT22;1026;51.460;7.252;2023-01-09T18:20:39;8.40;98.70
2042;DHT22;1026;51.460;7.252;2023-01-09T18:23:17;8.40;98.80
2042;DHT22;1026;51.460;7.252;2023-01-09T18:25:43;8.40;98.80
2042;DHT22;1026;51.460;7.252;2023-01-09T18:28:13;8.40;98.80
2042;DHT22;1026;51.460;7.252;2023-01-09T18:30:41;8.30;98.70
2042;DHT22;1026;51.460;7.252;2023-01-09T18:33:10;8.30;98.70
2042;DHT22;1026;51.460;7.252;2023-01-09T18:35:36;8.40;98.80
2042;DHT22;1026;51.460;7.252;2023-01-09T18:38:02;8.40;98.80
2042;DHT22;1026;51.460;7.252;2023-01-09T18:40:28;8.30;98.70
2042;DHT22;1026;51.460;7.252;2023-01-09T18:42:54;8.40;98.70
2042;DHT22;1026;51.460;7.252;2023-01-09T18:45:20;8.40;98.70
2042;DHT22;1026;51.460;7.252;2023-01-09T18:47:46;8.40;98.70
2042;DHT22;1026;51.460;7.252;2023-01-09T18:50:11;8.20;98.60